Time;durP1;ratioP1;P1;durP2;ratioP2;P2;SDS_P1;SDS_P2;PMS_P1;PMS_P2;Temp;Humidity;BMP_temperature;BMP_pressure;BME280_temperature;BME280_humidity;BME280_pressure;Samples;Min_cycle;Max_cycle;Signal;HPM_P1;HPM_P2
2021/09/16 00:00:14;;;;;;;;;;;14.90;99.90;;;;;;5138542;27;19934;-84
2021/09/16 00:02:41;;;;;;;;;;;14.90;99.90;;;;;;5138805;27;19927;-84
2021/09/16 00:05:19;;;;;;;;;;;14.90;99.90;;;;;;5138601;27;19930;-85
2021/09/16 00:07:47;;;;;;;;;;;14.90;99.90;;;;;;5139078;27;19981;-84
2021/09/16 00:10:15;;;;;;;;;;;14.90;99.90;;;;;;5138816;27;20287;-84
2021/09/16 00:12:43;;;;;;;;;;;14.90;99.90;;;;;;5138470;27;19923;-84
2021/09/16 00:15:13;;;;;;;;;;;14.90;99.90;;;;;;5138430;27;19930;-84
2021/09/16 00:17:41;;;;;;;;;;;14.90;99.90;;;;;;5138774;27;20420;-84
2021/09/16 00:20:09;;;;;;;;;;;14.90;99.90;;;;;;5138425;27;19923;-84
2021/09/16 00:22:46;;;;;;;;;;;14.90;99.90;;;;;;5138248;27;19930;-84
2021/09/16 00:25:14;;;;;;;;;;;14.90;99.90;;;;;;5138285;27;20390;-84
2021/09/16 00:27:42;;;;;;;;;;;14.90;99.90;;;;;;5138285;27;20475;-83
2021/09/16 00:30:10;;;;;;;;;;;14.90;99.90;;;;;;5137992;27;19924;-81
2021/09/16 00:32:39;;;;;;;;;;;14.90;99.90;;;;;;5138268;27;19933;-84
2021/09/16 00:35:08;;;;;;;;;;;14.90;99.90;;;;;;5138264;27;19923;-82
2021/09/16 00:37:35;;;;;;;;;;;14.90;99.90;;;;;;5138028;27;19924;-83
2021/09/16 00:40:14;;;;;;;;;;;14.80;99.90;;;;;;5137914;27;19923;-81
2021/09/16 00:42:43;;;;;;;;;;;14.90;99.90;;;;;;5138000;27;19927;-82
2021/09/16 00:45:11;;;;;;;;;;;14.90;99.90;;;;;;5138031;27;19923;-82
2021/09/16 00:47:40;;;;;;;;;;;14.90;99.90;;;;;;5137766;27;19934;-81
2021/09/16 00:50:09;;;;;;;;;;;14.90;99.90;;;;;;5137410;27;19924;-81
2021/09/16 00:52:36;;;;;;;;;;;14.90;99.90;;;;;;5137908;27;19928;-81
2021/09/16 00:55:07;;;;;;;;;;;14.90;99.90;;;;;;5137939;27;20339;-81
2021/09/16 00:57:35;;;;;;;;;;;14.80;99.90;;;;;;5136466;27;19923;-81
2021/09/16 01:00:02;;;;;;;;;;;14.90;99.90;;;;;;5137705;27;19923;-81
2021/09/16 01:02:30;;;;;;;;;;;14.80;99.90;;;;;;5137544;27;19934;-82
2021/09/16 01:05:00;;;;;;;;;;;14.80;99.90;;;;;;5137056;27;19924;-83
2021/09/16 01:07:29;;;;;;;;;;;14.80;99.90;;;;;;5137780;27;19980;-82
2021/09/16 01:09:59;;;;;;;;;;;14.80;99.90;;;;;;5137381;27;20331;-81
2021/09/16 01:12:29;;;;;;;;;;;14.80;99.90;;;;;;5137273;27;19923;-82
2021/09/16 01:14:57;;;;;;;;;;;14.80;99.90;;;;;;5137758;27;19930;-81
2021/09/16 01:17:25;;;;;;;;;;;14.80;99.90;;;;;;5137108;27;19923;-82
2021/09/16 01:19:56;;;;;;;;;;;14.80;99.90;;;;;;5137286;27;19937;-82
2021/09/16 01:22:24;;;;;;;;;;;14.80;99.90;;;;;;5137117;27;20030;-82
2021/09/16 01:24:54;;;;;;;;;;;14.80;99.90;;;;;;5137122;27;19924;-82
2021/09/16 01:27:22;;;;;;;;;;;14.80;99.90;;;;;;5137061;27;19927;-83
2021/09/16 01:29:51;;;;;;;;;;;14.80;99.90;;;;;;5136859;27;19942;-84
2021/09/16 01:32:21;;;;;;;;;;;14.80;99.90;;;;;;5137357;27;19923;-82
2021/09/16 01:34:50;;;;;;;;;;;14.80;99.90;;;;;;5136935;27;19924;-85
2021/09/16 01:37:18;;;;;;;;;;;14.80;99.90;;;;;;5136992;27;19930;-83
2021/09/16 01:39:49;;;;;;;;;;;14.80;99.90;;;;;;5136783;27;19924;-84
2021/09/16 01:42:19;;;;;;;;;;;14.80;99.90;;;;;;5136861;27;20312;-84
2021/09/16 01:44:48;;;;;;;;;;;14.80;99.90;;;;;;5136802;27;19946;-84
2021/09/16 01:47:17;;;;;;;;;;;14.80;99.90;;;;;;5137005;27;20301;-84
2021/09/16 01:49:44;;;;;;;;;;;14.80;99.90;;;;;;5136481;27;19986;-84
2021/09/16 01:52:12;;;;;;;;;;;14.80;99.90;;;;;;5136528;27;19932;-84
2021/09/16 01:54:41;;;;;;;;;;;14.80;99.90;;;;;;5136583;27;19923;-86
2021/09/16 01:57:09;;;;;;;;;;;14.90;99.90;;;;;;5136773;27;19930;-77
2021/09/16 01:59:38;;;;;;;;;;;14.90;99.90;;;;;;5138643;27;20014;-83
2021/09/16 02:02:06;;;;;;;;;;;14.80;99.90;;;;;;5137900;27;19987;-84
2021/09/16 02:04:34;;;;;;;;;;;14.80;99.90;;;;;;5137510;27;19923;-84
2021/09/16 02:07:01;;;;;;;;;;;14.90;99.90;;;;;;5136336;27;19934;-86
2021/09/16 02:09:28;;;;;;;;;;;14.80;99.90;;;;;;5136327;27;19924;-82
2021/09/16 02:11:55;;;;;;;;;;;14.80;99.90;;;;;;5136474;27;19931;-82
2021/09/16 02:14:21;;;;;;;;;;;14.80;99.90;;;;;;5136255;27;19934;-83
2021/09/16 02:16:50;;;;;;;;;;;14.80;99.90;;;;;;5136333;27;19925;-83
2021/09/16 02:19:16;;;;;;;;;;;14.80;99.90;;;;;;5136280;27;20224;-80
2021/09/16 02:21:43;;;;;;;;;;;14.80;99.90;;;;;;5135306;27;19924;-79
2021/09/16 02:24:10;;;;;;;;;;;14.80;99.90;;;;;;5136386;27;19928;-80
2021/09/16 02:26:37;;;;;;;;;;;14.70;99.90;;;;;;5136131;27;19933;-84
2021/09/16 02:29:04;;;;;;;;;;;14.70;99.90;;;;;;5136416;27;19950;-83
2021/09/16 02:31:31;;;;;;;;;;;14.70;99.90;;;;;;5136088;28;20383;-82
2021/09/16 02:33:59;;;;;;;;;;;14.70;99.90;;;;;;5136054;28;20247;-83
2021/09/16 02:36:26;;;;;;;;;;;14.70;99.90;;;;;;5136128;28;19924;-82
2021/09/16 02:38:53;;;;;;;;;;;14.70;99.90;;;;;;5135843;28;19992;-82
2021/09/16 02:41:20;;;;;;;;;;;14.70;99.90;;;;;;5136421;28;19928;-84
2021/09/16 02:43:47;;;;;;;;;;;14.60;99.90;;;;;;5136210;28;20030;-85
2021/09/16 02:46:14;;;;;;;;;;;14.60;99.90;;;;;;5136126;28;19923;-85
2021/09/16 02:48:41;;;;;;;;;;;14.60;99.90;;;;;;5135963;28;19939;-84
2021/09/16 02:51:09;;;;;;;;;;;14.60;99.90;;;;;;5135919;28;19923;-83
2021/09/16 02:53:36;;;;;;;;;;;14.60;99.90;;;;;;5135878;28;19923;-85
2021/09/16 02:56:03;;;;;;;;;;;14.60;99.90;;;;;;5135798;28;20014;-85
2021/09/16 02:58:30;;;;;;;;;;;14.60;99.90;;;;;;5135844;28;19923;-82
2021/09/16 03:00:57;;;;;;;;;;;14.60;99.90;;;;;;5135714;28;19923;-85
2021/09/16 03:03:23;;;;;;;;;;;14.60;99.90;;;;;;5135797;28;19923;-83
2021/09/16 03:05:50;;;;;;;;;;;14.60;99.90;;;;;;5135795;28;19923;-85
2021/09/16 03:08:19;;;;;;;;;;;14.60;99.90;;;;;;5135788;28;19923;-82
2021/09/16 03:10:45;;;;;;;;;;;14.60;99.90;;;;;;5136199;27;19923;-85
2021/09/16 03:13:12;;;;;;;;;;;14.60;99.90;;;;;;5139498;27;19923;-84
2021/09/16 03:15:39;;;;;;;;;;;14.70;99.90;;;;;;5139637;27;20361;-84
2021/09/16 03:18:06;;;;;;;;;;;14.70;99.90;;;;;;5139779;27;19924;-84
2021/09/16 03:20:33;;;;;;;;;;;14.70;99.90;;;;;;5139517;27;20347;-84
2021/09/16 03:23:00;;;;;;;;;;;14.70;99.90;;;;;;5139398;27;19923;-84
2021/09/16 03:25:28;;;;;;;;;;;14.70;99.90;;;;;;5139479;27;19923;-84
2021/09/16 03:27:55;;;;;;;;;;;14.70;99.90;;;;;;5139541;27;19934;-83
2021/09/16 03:30:21;;;;;;;;;;;14.70;99.90;;;;;;5139342;27;20251;-83
2021/09/16 03:32:48;;;;;;;;;;;14.70;99.90;;;;;;5139584;27;19923;-84
2021/09/16 03:35:15;;;;;;;;;;;14.70;99.90;;;;;;5139146;27;20255;-84
2021/09/16 03:37:42;;;;;;;;;;;14.70;99.90;;;;;;5139061;27;20266;-84
2021/09/16 03:40:10;;;;;;;;;;;14.70;99.90;;;;;;5139093;27;20347;-84
2021/09/16 03:42:38;;;;;;;;;;;14.70;99.90;;;;;;5139423;27;20255;-84
2021/09/16 03:45:05;;;;;;;;;;;14.70;99.90;;;;;;5139004;27;19932;-84
2021/09/16 03:47:32;;;;;;;;;;;14.70;99.90;;;;;;5138998;27;19924;-84
2021/09/16 03:49:59;;;;;;;;;;;14.70;99.90;;;;;;5138839;27;19930;-84
2021/09/16 03:52:26;;;;;;;;;;;14.70;99.90;;;;;;5139184;27;20032;-83
2021/09/16 03:54:52;;;;;;;;;;;14.70;99.90;;;;;;5139062;27;19934;-83
2021/09/16 03:57:19;;;;;;;;;;;14.70;99.90;;;;;;5138846;27;19923;-84
2021/09/16 03:59:47;;;;;;;;;;;14.80;99.90;;;;;;5138746;27;20344;-83
2021/09/16 04:02:14;;;;;;;;;;;14.70;99.90;;;;;;5138729;27;19927;-84
2021/09/16 04:04:41;;;;;;;;;;;14.70;99.90;;;;;;5138727;27;19930;-83
2021/09/16 04:07:08;;;;;;;;;;;14.70;99.90;;;;;;5138836;27;19923;-84
2021/09/16 04:09:35;;;;;;;;;;;14.70;99.90;;;;;;5138785;27;19965;-83
2021/09/16 04:12:02;;;;;;;;;;;14.70;99.90;;;;;;5138817;27;20339;-84
2021/09/16 04:14:28;;;;;;;;;;;14.70;99.90;;;;;;5138847;27;19934;-84
2021/09/16 04:16:57;;;;;;;;;;;14.70;99.90;;;;;;5138593;27;19933;-83
2021/09/16 04:19:24;;;;;;;;;;;14.70;99.90;;;;;;5138254;27;20339;-82
2021/09/16 04:21:51;;;;;;;;;;;14.70;99.90;;;;;;5138783;27;19924;-83
2021/09/16 04:24:17;;;;;;;;;;;14.70;99.90;;;;;;5138362;27;20354;-84
2021/09/16 04:26:45;;;;;;;;;;;14.70;99.90;;;;;;5138277;27;19928;-84
2021/09/16 04:29:12;;;;;;;;;;;14.70;99.90;;;;;;5138399;27;19934;-84
2021/09/16 04:31:39;;;;;;;;;;;14.70;99.90;;;;;;5138063;27;19923;-84
2021/09/16 04:34:07;;;;;;;;;;;14.70;99.90;;;;;;5138080;27;19938;-83
2021/09/16 04:36:34;;;;;;;;;;;14.70;99.90;;;;;;5138043;27;20232;-83
2021/09/16 04:39:01;;;;;;;;;;;14.80;99.90;;;;;;5138219;27;19923;-83
2021/09/16 04:41:28;;;;;;;;;;;14.80;99.90;;;;;;5138384;27;19923;-84
2021/09/16 04:43:55;;;;;;;;;;;14.80;99.90;;;;;;5138034;27;19934;-84
2021/09/16 04:46:22;;;;;;;;;;;14.80;99.90;;;;;;5137840;27;20040;-84
2021/09/16 04:48:49;;;;;;;;;;;14.80;99.90;;;;;;5137787;27;20266;-84
2021/09/16 04:51:17;;;;;;;;;;;14.80;99.90;;;;;;5137751;27;19923;-84
2021/09/16 04:53:44;;;;;;;;;;;14.80;99.90;;;;;;5137929;27;19934;-84
2021/09/16 04:56:10;;;;;;;;;;;14.70;99.90;;;;;;5137804;27;19928;-84
2021/09/16 04:58:37;;;;;;;;;;;14.80;99.90;;;;;;5137624;27;20258;-84
2021/09/16 05:01:04;;;;;;;;;;;14.80;99.90;;;;;;5137798;27;20354;-85
2021/09/16 05:03:31;;;;;;;;;;;14.70;99.90;;;;;;5137573;27;19931;-85
2021/09/16 05:05:58;;;;;;;;;;;14.80;99.90;;;;;;5137929;27;19923;-84
2021/09/16 05:08:26;;;;;;;;;;;14.80;99.90;;;;;;5137521;27;19928;-84
2021/09/16 05:10:53;;;;;;;;;;;14.80;99.90;;;;;;5137552;27;19935;-84
2021/09/16 05:13:20;;;;;;;;;;;14.70;99.90;;;;;;5137488;27;19934;-84
2021/09/16 05:15:46;;;;;;;;;;;14.70;99.90;;;;;;5137370;27;19934;-84
2021/09/16 05:18:13;;;;;;;;;;;14.70;99.90;;;;;;5137506;27;19923;-83
2021/09/16 05:20:40;;;;;;;;;;;14.70;99.90;;;;;;5137642;27;20338;-84
2021/09/16 05:23:07;;;;;;;;;;;14.70;99.90;;;;;;5137292;27;19934;-84
2021/09/16 05:25:35;;;;;;;;;;;14.70;99.90;;;;;;5137271;27;19923;-84
2021/09/16 05:28:02;;;;;;;;;;;14.70;99.90;;;;;;5137018;27;19923;-84
2021/09/16 05:30:29;;;;;;;;;;;14.70;99.90;;;;;;5136855;27;19923;-84
2021/09/16 05:32:56;;;;;;;;;;;14.70;99.90;;;;;;5137028;27;19936;-84
2021/09/16 05:35:22;;;;;;;;;;;14.70;99.90;;;;;;5136620;27;19950;-84
2021/09/16 05:37:49;;;;;;;;;;;14.70;99.90;;;;;;5136782;27;20389;-83
2021/09/16 05:40:16;;;;;;;;;;;14.70;99.90;;;;;;5136950;27;19924;-84
2021/09/16 05:42:44;;;;;;;;;;;14.70;99.90;;;;;;5136852;27;19933;-84
2021/09/16 05:45:12;;;;;;;;;;;14.70;99.90;;;;;;5137135;27;19923;-84
2021/09/16 05:47:38;;;;;;;;;;;14.70;99.90;;;;;;5137017;27;20351;-84
2021/09/16 05:50:05;;;;;;;;;;;14.70;99.90;;;;;;5136570;27;19937;-84
2021/09/16 05:52:32;;;;;;;;;;;14.70;99.90;;;;;;5136600;27;20258;-85
2021/09/16 05:54:59;;;;;;;;;;;14.60;99.90;;;;;;5136557;27;19923;-84
2021/09/16 05:57:26;;;;;;;;;;;14.60;99.90;;;;;;5136804;27;19924;-84
2021/09/16 05:59:54;;;;;;;;;;;14.50;99.90;;;;;;5136745;27;19924;-84
2021/09/16 06:02:21;;;;;;;;;;;14.50;99.90;;;;;;5136679;27;19923;-84
2021/09/16 06:04:48;;;;;;;;;;;14.50;99.90;;;;;;5136616;27;20236;-84
2021/09/16 06:07:15;;;;;;;;;;;14.40;99.90;;;;;;5136357;27;20000;-84
2021/09/16 06:09:41;;;;;;;;;;;14.40;99.90;;;;;;5136321;27;19923;-84
2021/09/16 06:12:08;;;;;;;;;;;14.40;99.90;;;;;;5136339;27;19933;-84
2021/09/16 06:14:35;;;;;;;;;;;14.40;99.90;;;;;;5136604;27;20004;-84
2021/09/16 06:17:04;;;;;;;;;;;14.40;99.90;;;;;;5136467;27;19970;-84
2021/09/16 06:19:31;;;;;;;;;;;14.70;99.90;;;;;;5136116;27;19976;-84
2021/09/16 06:21:57;;;;;;;;;;;14.40;99.90;;;;;;5136299;27;19970;-83
2021/09/16 06:24:24;;;;;;;;;;;14.40;99.90;;;;;;5136057;27;19981;-83
2021/09/16 06:26:51;;;;;;;;;;;14.30;99.90;;;;;;5136116;27;19994;-83
2021/09/16 06:29:18;;;;;;;;;;;14.30;99.90;;;;;;5136395;27;20023;-83
2021/09/16 06:31:45;;;;;;;;;;;14.20;99.90;;;;;;5135164;28;20306;-83
2021/09/16 06:34:13;;;;;;;;;;;14.20;99.90;;;;;;5135250;28;19967;-84
2021/09/16 06:36:40;;;;;;;;;;;14.20;99.90;;;;;;5135480;28;19979;-83
2021/09/16 06:39:07;;;;;;;;;;;14.10;99.90;;;;;;5135263;28;19974;-83
2021/09/16 06:41:34;;;;;;;;;;;14.10;99.90;;;;;;5135042;28;20022;-83
2021/09/16 06:44:01;;;;;;;;;;;14.10;99.90;;;;;;5135367;28;20057;-84
2021/09/16 06:46:28;;;;;;;;;;;14.10;99.90;;;;;;5135730;27;20010;-84
2021/09/16 06:48:55;;;;;;;;;;;14.20;99.90;;;;;;5138867;28;20484;-84
2021/09/16 06:51:23;;;;;;;;;;;14.20;99.90;;;;;;5138773;28;19923;-84
2021/09/16 06:53:50;;;;;;;;;;;14.30;99.90;;;;;;5138725;28;20390;-85
2021/09/16 06:56:17;;;;;;;;;;;14.40;99.90;;;;;;5138653;28;19966;-85
2021/09/16 06:58:44;;;;;;;;;;;14.50;99.90;;;;;;5138966;28;20052;-85
2021/09/16 07:01:11;;;;;;;;;;;14.60;99.90;;;;;;5138461;28;20022;-85
2021/09/16 07:03:37;;;;;;;;;;;14.70;99.90;;;;;;5138640;28;19967;-85
2021/09/16 07:06:04;;;;;;;;;;;14.70;99.90;;;;;;5138634;28;19962;-84
2021/09/16 07:08:33;;;;;;;;;;;14.80;99.90;;;;;;5138438;28;19978;-84
2021/09/16 07:11:00;;;;;;;;;;;14.90;99.90;;;;;;5138677;28;19966;-85
2021/09/16 07:13:26;;;;;;;;;;;14.90;99.90;;;;;;5138492;28;20334;-85
2021/09/16 07:15:53;;;;;;;;;;;15.00;99.90;;;;;;5138292;28;19967;-84
2021/09/16 07:18:20;;;;;;;;;;;15.10;99.90;;;;;;5138188;28;20327;-85
2021/09/16 07:20:47;;;;;;;;;;;15.10;99.90;;;;;;5138240;28;20010;-86
2021/09/16 07:23:14;;;;;;;;;;;15.20;99.90;;;;;;5138417;28;20382;-86
2021/09/16 07:25:42;;;;;;;;;;;15.20;99.90;;;;;;5138427;28;19970;-87
2021/09/16 07:28:09;;;;;;;;;;;15.30;99.90;;;;;;5138453;28;19931;-87
2021/09/16 07:32:12;;;;;;;;;;;15.50;99.90;;;;;;5113122;27;19935;-86
2021/09/16 07:34:39;;;;;;;;;;;15.60;99.90;;;;;;5113165;28;20331;-86
2021/09/16 07:37:06;;;;;;;;;;;15.70;99.90;;;;;;5113015;28;19964;-86
2021/09/16 07:39:33;;;;;;;;;;;15.80;99.90;;;;;;5112946;28;19935;-86
2021/09/16 07:42:00;;;;;;;;;;;15.80;99.90;;;;;;5112857;28;19972;-86
2021/09/16 07:44:27;;;;;;;;;;;15.70;99.90;;;;;;5112741;28;20339;-86
2021/09/16 07:46:54;;;;;;;;;;;15.70;99.90;;;;;;5112734;28;19960;-86
2021/09/16 07:49:22;;;;;;;;;;;15.70;99.90;;;;;;5112702;28;20039;-86
2021/09/16 07:51:49;;;;;;;;;;;15.60;99.90;;;;;;5112640;28;20386;-86
2021/09/16 07:54:16;;;;;;;;;;;15.70;99.90;;;;;;5112815;28;19996;-86
2021/09/16 07:56:43;;;;;;;;;;;15.70;99.90;;;;;;5112491;28;20015;-85
2021/09/16 07:59:10;;;;;;;;;;;15.70;99.90;;;;;;5112518;28;20018;-86
2021/09/16 08:01:37;;;;;;;;;;;15.70;99.90;;;;;;5112759;28;19982;-86
2021/09/16 08:04:04;;;;;;;;;;;15.80;99.90;;;;;;5112570;28;20284;-84
2021/09/16 08:06:32;;;;;;;;;;;15.80;99.90;;;;;;5112475;28;20022;-86
2021/09/16 08:08:59;;;;;;;;;;;15.80;99.90;;;;;;5112440;28;19975;-86
2021/09/16 08:11:28;;;;;;;;;;;15.80;99.90;;;;;;5112209;28;20014;-84
2021/09/16 08:13:56;;;;;;;;;;;15.80;99.90;;;;;;5112245;28;19924;-84
2021/09/16 08:16:26;;;;;;;;;;;15.80;99.90;;;;;;5112405;28;19971;-74
2021/09/16 08:18:54;;;;;;;;;;;15.90;99.90;;;;;;5112156;28;19985;-78
2021/09/16 08:21:23;;;;;;;;;;;15.90;99.90;;;;;;5112048;28;20022;-82
2021/09/16 08:23:53;;;;;;;;;;;16.00;99.90;;;;;;5112193;28;19924;-81
2021/09/16 08:26:22;;;;;;;;;;;16.00;99.90;;;;;;5112471;28;20229;-81
2021/09/16 08:28:50;;;;;;;;;;;16.10;99.90;;;;;;5112050;28;19923;-81
2021/09/16 08:31:19;;;;;;;;;;;16.10;99.90;;;;;;5125189;28;20427;-82
2021/09/16 08:33:48;;;;;;;;;;;16.20;99.90;;;;;;5132882;28;19924;-82
2021/09/16 08:36:17;;;;;;;;;;;16.20;99.90;;;;;;5132381;28;19923;-80
2021/09/16 08:38:45;;;;;;;;;;;16.30;99.90;;;;;;5132276;27;19981;-81
2021/09/16 08:41:27;;;;;;;;;;;16.40;99.90;;;;;;5132379;28;20415;-81
2021/09/16 08:44:05;;;;;;;;;;;16.50;99.90;;;;;;5118315;28;20023;-80
2021/09/16 08:46:33;;;;;;;;;;;16.70;99.90;;;;;;5118445;28;19935;-80
2021/09/16 08:49:01;;;;;;;;;;;16.80;99.90;;;;;;5118294;28;20018;-81
2021/09/16 08:51:32;;;;;;;;;;;16.80;99.90;;;;;;5118187;28;19986;-81
2021/09/16 08:54:00;;;;;;;;;;;16.80;99.90;;;;;;5118447;28;19950;-80
2021/09/16 08:56:30;;;;;;;;;;;16.80;99.90;;;;;;5118340;28;20425;-80
2021/09/16 08:58:59;;;;;;;;;;;16.80;99.90;;;;;;5118207;28;20010;-81
2021/09/16 09:01:27;;;;;;;;;;;16.80;99.90;;;;;;5118170;28;20026;-79
2021/09/16 09:03:56;;;;;;;;;;;16.90;99.90;;;;;;5118068;28;20022;-81
2021/09/16 09:06:28;;;;;;;;;;;16.90;99.90;;;;;;5120728;28;20327;-79
2021/09/16 09:09:09;;;;;;;;;;;17.00;99.90;;;;;;5118484;28;19928;-84
2021/09/16 09:11:51;;;;;;;;;;;17.10;99.90;;;;;;5118952;28;19978;-84
2021/09/16 09:14:21;;;;;;;;;;;17.10;99.90;;;;;;5118422;28;19924;-83
2021/09/16 09:16:48;;;;;;;;;;;17.20;99.90;;;;;;5118141;28;19927;-83
2021/09/16 09:19:17;;;;;;;;;;;17.10;99.90;;;;;;5117893;28;19923;-81
2021/09/16 09:21:45;;;;;;;;;;;17.10;99.90;;;;;;5117691;28;20267;-81
2021/09/16 09:24:13;;;;;;;;;;;17.20;99.90;;;;;;5117676;28;19985;-80
2021/09/16 09:26:41;;;;;;;;;;;17.20;99.90;;;;;;5117737;28;20014;-79
2021/09/16 09:29:17;;;;;;;;;;;17.20;99.90;;;;;;5117510;28;20364;-79
2021/09/16 09:31:52;;;;;;;;;;;17.20;99.90;;;;;;5117514;28;20289;-80
2021/09/16 09:34:24;;;;;;;;;;;17.30;99.90;;;;;;5117839;28;19977;-79
2021/09/16 09:36:53;;;;;;;;;;;17.30;99.90;;;;;;5117480;28;19971;-79
2021/09/16 09:39:25;;;;;;;;;;;17.20;99.90;;;;;;5117468;28;19963;-79
2021/09/16 09:41:51;;;;;;;;;;;17.20;99.90;;;;;;5117426;28;20027;-78
2021/09/16 09:44:21;;;;;;;;;;;17.10;99.90;;;;;;5116863;28;19970;-78
2021/09/16 09:46:55;;;;;;;;;;;17.00;99.90;;;;;;5117043;28;19923;-78
2021/09/16 09:49:28;;;;;;;;;;;17.00;99.90;;;;;;5114040;28;19982;-78
2021/09/16 09:51:55;;;;;;;;;;;16.90;99.90;;;;;;5117085;28;20339;-78
2021/09/16 09:54:26;;;;;;;;;;;16.90;99.90;;;;;;5116441;28;19923;-78
2021/09/16 09:57:04;;;;;;;;;;;16.90;99.90;;;;;;5117049;28;19973;-78
2021/09/16 09:59:49;;;;;;;;;;;16.90;99.90;;;;;;5117046;28;20044;-79
2021/09/16 10:02:19;;;;;;;;;;;16.90;99.90;;;;;;5117008;28;20367;-79
2021/09/16 10:04:48;;;;;;;;;;;16.90;99.90;;;;;;5116819;28;19986;-78
2021/09/16 10:07:27;;;;;;;;;;;16.90;99.90;;;;;;5116872;28;19958;-78
2021/09/16 10:09:56;;;;;;;;;;;16.90;99.90;;;;;;5116780;28;19967;-78
2021/09/16 10:12:24;;;;;;;;;;;16.80;99.90;;;;;;5116679;28;19934;-77
2021/09/16 10:14:51;;;;;;;;;;;16.80;99.90;;;;;;5116465;28;19974;-78
2021/09/16 10:17:31;;;;;;;;;;;16.80;99.90;;;;;;5116742;28;20363;-77
2021/09/16 10:20:02;;;;;;;;;;;16.70;99.90;;;;;;5116990;28;19966;-78
2021/09/16 10:22:33;;;;;;;;;;;16.70;99.90;;;;;;5116498;28;19977;-77
2021/09/16 10:25:01;;;;;;;;;;;16.60;99.90;;;;;;5116521;28;20350;-78
2021/09/16 10:27:30;;;;;;;;;;;16.70;99.90;;;;;;5116407;28;19971;-78
2021/09/16 10:29:58;;;;;;;;;;;16.70;99.90;;;;;;5116124;28;19978;-77
2021/09/16 10:32:39;;;;;;;;;;;16.70;99.90;;;;;;5116309;28;20014;-78
2021/09/16 10:35:18;;;;;;;;;;;16.70;99.90;;;;;;5116530;28;20015;-78
2021/09/16 10:37:48;;;;;;;;;;;16.70;99.90;;;;;;5116318;28;20015;-78
2021/09/16 10:40:23;;;;;;;;;;;16.70;99.90;;;;;;5116813;28;19988;-78
2021/09/16 10:42:54;;;;;;;;;;;16.80;99.90;;;;;;5116303;28;20347;-77
2021/09/16 10:45:43;;;;;;;;;;;16.80;99.90;;;;;;5115914;28;19935;-78
2021/09/16 10:48:32;;;;;;;;;;;16.80;99.90;;;;;;5109874;28;20031;-77
2021/09/16 10:51:05;;;;;;;;;;;16.90;99.90;;;;;;5115483;28;19986;-79
2021/09/16 10:53:34;;;;;;;;;;;16.90;99.90;;;;;;5116080;28;20309;-81
2021/09/16 10:56:02;;;;;;;;;;;16.90;99.90;;;;;;5115966;28;20010;-79
2021/09/16 10:58:30;;;;;;;;;;;16.90;99.90;;;;;;5115968;28;20377;-79
2021/09/16 11:00:59;;;;;;;;;;;16.90;99.90;;;;;;5115983;28;20014;-80
2021/09/16 11:03:34;;;;;;;;;;;16.90;99.90;;;;;;5116013;28;19924;-78
2021/09/16 11:06:02;;;;;;;;;;;16.90;99.90;;;;;;5115298;28;19967;-80
2021/09/16 11:08:52;;;;;;;;;;;17.00;99.90;;;;;;5115682;28;19924;-79
2021/09/16 11:11:22;;;;;;;;;;;17.10;99.90;;;;;;5115678;28;19931;-79
2021/09/16 11:13:53;;;;;;;;;;;17.10;99.90;;;;;;5115235;28;20387;-78
2021/09/16 11:16:25;;;;;;;;;;;17.30;99.90;;;;;;5115803;28;20014;-78
2021/09/16 11:19:04;;;;;;;;;;;17.30;99.90;;;;;;5115856;28;19975;-78
2021/09/16 11:21:32;;;;;;;;;;;17.40;99.90;;;;;;5115683;28;19971;-79
2021/09/16 11:24:02;;;;;;;;;;;17.60;99.90;;;;;;5115854;28;20006;-79
2021/09/16 11:26:30;;;;;;;;;;;17.70;99.90;;;;;;5115862;28;19923;-79
2021/09/16 11:29:14;;;;;;;;;;;17.80;99.90;;;;;;5115841;28;19963;-80
2021/09/16 11:31:42;;;;;;;;;;;17.90;99.90;;;;;;5114263;28;20419;-80
2021/09/16 11:34:13;;;;;;;;;;;18.00;99.90;;;;;;5115510;28;20407;-79
2021/09/16 11:36:57;;;;;;;;;;;18.10;99.90;;;;;;5115501;28;20038;-81
2021/09/16 11:39:25;;;;;;;;;;;18.10;99.90;;;;;;5099627;28;19975;-81
2021/09/16 11:42:16;;;;;;;;;;;18.10;99.90;;;;;;5115495;28;19981;-81
2021/09/16 11:45:14;;;;;;;;;;;18.20;99.90;;;;;;5115262;28;20009;-81
2021/09/16 11:47:46;;;;;;;;;;;18.30;99.90;;;;;;5073070;28;19998;-80
2021/09/16 11:50:29;;;;;;;;;;;18.30;99.90;;;;;;5073271;28;19995;-79
2021/09/16 11:52:57;;;;;;;;;;;18.30;99.90;;;;;;5073111;28;19935;-81
2021/09/16 11:55:26;;;;;;;;;;;18.30;99.90;;;;;;5073071;28;20351;-91
2021/09/16 11:57:55;;;;;;;;;;;18.20;99.90;;;;;;5073451;28;20022;-80
2021/09/16 12:00:24;;;;;;;;;;;18.10;99.90;;;;;;5073286;28;19964;-79
2021/09/16 12:02:52;;;;;;;;;;;18.10;99.90;;;;;;5073123;28;20010;-81
2021/09/16 12:05:42;;;;;;;;;;;18.10;99.90;;;;;;5073236;28;20323;-80
2021/09/16 12:08:13;;;;;;;;;;;18.00;99.90;;;;;;5073132;28;19960;-79
2021/09/16 12:10:42;;;;;;;;;;;18.00;99.90;;;;;;5072866;28;19935;-80
2021/09/16 12:13:12;;;;;;;;;;;18.00;99.90;;;;;;5072845;28;20026;-80
2021/09/16 12:15:40;;;;;;;;;;;18.10;99.90;;;;;;5072829;28;19968;-80
2021/09/16 12:18:09;;;;;;;;;;;18.10;99.90;;;;;;5075121;28;20019;-79
2021/09/16 12:20:38;;;;;;;;;;;18.10;99.90;;;;;;5076802;28;20017;-80
2021/09/16 12:23:07;;;;;;;;;;;18.20;99.90;;;;;;5119223;28;20001;-80
2021/09/16 12:25:48;;;;;;;;;;;18.20;99.90;;;;;;5118781;28;19974;-79
2021/09/16 12:28:15;;;;;;;;;;;18.30;99.90;;;;;;5118854;28;19966;-81
2021/09/16 12:30:43;;;;;;;;;;;18.30;99.90;;;;;;5118764;28;20322;-79
2021/09/16 12:33:26;;;;;;;;;;;18.40;99.90;;;;;;5118658;28;19978;-78
2021/09/16 12:36:07;;;;;;;;;;;18.40;99.90;;;;;;5118790;28;20458;-81
2021/09/16 12:38:37;;;;;;;;;;;18.40;99.90;;;;;;5118592;28;19967;-79
2021/09/16 12:41:19;;;;;;;;;;;18.50;99.90;;;;;;5118081;28;20105;-80
2021/09/16 12:43:45;;;;;;;;;;;18.60;99.90;;;;;;5118514;28;19962;-78
2021/09/16 12:46:17;;;;;;;;;;;18.60;99.90;;;;;;5118592;28;20010;-80
2021/09/16 12:48:44;;;;;;;;;;;18.70;99.90;;;;;;5118567;28;19978;-77
2021/09/16 12:51:14;;;;;;;;;;;18.80;99.90;;;;;;5118413;28;19967;-78
2021/09/16 12:53:42;;;;;;;;;;;18.80;99.90;;;;;;5118297;28;19938;-80
2021/09/16 12:56:09;;;;;;;;;;;18.70;99.90;;;;;;5118344;28;19970;-80
2021/09/16 12:58:36;;;;;;;;;;;18.70;99.90;;;;;;5118204;28;19959;-80
2021/09/16 13:01:05;;;;;;;;;;;18.70;99.90;;;;;;5118272;28;20010;-79
2021/09/16 13:03:33;;;;;;;;;;;18.80;99.90;;;;;;5117880;28;19928;-80
2021/09/16 13:06:08;;;;;;;;;;;18.90;99.90;;;;;;5118119;28;20044;-80
2021/09/16 13:08:43;;;;;;;;;;;18.90;99.90;;;;;;5118167;28;20386;-80
2021/09/16 13:11:23;;;;;;;;;;;19.00;99.90;;;;;;5118131;28;19939;-80
2021/09/16 13:14:09;;;;;;;;;;;19.10;99.90;;;;;;5118083;28;19931;-79
2021/09/16 13:16:38;;;;;;;;;;;19.20;99.90;;;;;;5117205;28;20381;-80
2021/09/16 13:19:09;;;;;;;;;;;19.30;99.90;;;;;;5118096;28;19931;-80
2021/09/16 13:21:37;;;;;;;;;;;19.30;99.90;;;;;;5118301;28;19930;-80
2021/09/16 13:24:15;;;;;;;;;;;19.30;99.90;;;;;;5117734;28;19979;-80
2021/09/16 13:26:43;;;;;;;;;;;19.30;99.90;;;;;;5117793;28;19989;-79
2021/09/16 13:29:12;;;;;;;;;;;19.40;99.90;;;;;;5117597;28;20381;-79
2021/09/16 13:31:39;;;;;;;;;;;19.40;99.90;;;;;;5117278;28;19973;-79
2021/09/16 13:34:09;;;;;;;;;;;19.40;99.90;;;;;;5117625;28;19978;-80
2021/09/16 13:36:38;;;;;;;;;;;19.40;99.90;;;;;;5117818;28;20271;-80
2021/09/16 13:39:13;;;;;;;;;;;19.40;99.90;;;;;;5117500;28;19967;-79
2021/09/16 13:41:41;;;;;;;;;;;19.30;99.90;;;;;;5117527;28;19992;-79
2021/09/16 13:44:19;;;;;;;;;;;19.30;99.90;;;;;;5117608;28;19978;-79
2021/09/16 13:46:46;;;;;;;;;;;19.30;99.90;;;;;;5117506;28;20428;-79
2021/09/16 13:49:14;;;;;;;;;;;19.20;99.90;;;;;;5117447;28;19982;-79
2021/09/16 13:51:43;;;;;;;;;;;19.20;99.90;;;;;;5116452;28;19975;-78
2021/09/16 13:54:18;;;;;;;;;;;19.30;99.90;;;;;;5117088;28;19962;-79
2021/09/16 13:56:47;;;;;;;;;;;19.30;99.90;;;;;;5117013;28;19976;-79
2021/09/16 13:59:17;;;;;;;;;;;19.30;99.90;;;;;;5117067;28;19971;-79
2021/09/16 14:01:47;;;;;;;;;;;19.40;99.90;;;;;;5117438;28;20004;-79
2021/09/16 14:04:18;;;;;;;;;;;19.40;99.90;;;;;;5116788;28;19935;-79
2021/09/16 14:06:48;;;;;;;;;;;19.50;99.90;;;;;;5117128;28;20400;-79
2021/09/16 14:09:22;;;;;;;;;;;19.40;99.90;;;;;;5117098;28;19931;-79
2021/09/16 14:11:50;;;;;;;;;;;19.50;99.90;;;;;;5116785;28;20027;-79
2021/09/16 14:14:18;;;;;;;;;;;19.50;99.90;;;;;;5116940;28;19989;-79
2021/09/16 14:16:47;;;;;;;;;;;19.60;99.90;;;;;;5117105;28;19967;-79
2021/09/16 14:19:17;;;;;;;;;;;19.70;99.90;;;;;;5116627;28;19967;-79
2021/09/16 14:21:45;;;;;;;;;;;19.80;99.90;;;;;;5116870;28;20255;-79
2021/09/16 14:24:13;;;;;;;;;;;19.80;99.90;;;;;;5116757;28;19963;-79
2021/09/16 14:26:54;;;;;;;;;;;19.80;99.90;;;;;;5116817;28;19994;-79
2021/09/16 14:29:25;;;;;;;;;;;19.80;99.90;;;;;;5116589;28;19973;-79